sensor_id;sensor_type;location;lat;lon;timestamp;P1;durP1;ratioP1;P2;durP2;ratioP2
40533;SDS011;26233;51.894;10.192;2023-08-20T00:01:25;6.47;;;5.97;;
40533;SDS011;26233;51.894;10.192;2023-08-20T00:03:53;5.82;;;5.43;;
40533;SDS011;26233;51.894;10.192;2023-08-20T00:06:22;6.07;;;5.57;;
40533;SDS011;26233;51.894;10.192;2023-08-20T00:08:50;5.85;;;5.45;;
40533;SDS011;26233;51.894;10.192;2023-08-20T00:11:18;6.55;;;6.05;;
40533;SDS011;26233;51.894;10.192;2023-08-20T00:13:45;6.13;;;5.63;;
40533;SDS011;26233;51.894;10.192;2023-08-20T00:16:12;7.18;;;5.93;;
40533;SDS011;26233;51.894;10.192;2023-08-20T00:18:42;6.50;;;6.00;;
40533;SDS011;26233;51.894;10.192;2023-08-20T00:21:10;7.60;;;5.90;;
40533;SDS011;26233;51.894;10.192;2023-08-20T00:23:37;6.03;;;5.63;;
40533;SDS011;26233;51.894;10.192;2023-08-20T00:26:05;7.00;;;6.50;;
40533;SDS011;26233;51.894;10.192;2023-08-20T00:28:33;6.72;;;6.25;;
40533;SDS011;26233;51.894;10.192;2023-08-20T00:31:01;7.53;;;6.93;;
40533;SDS011;26233;51.894;10.192;2023-08-20T00:33:29;7.57;;;6.97;;
40533;SDS011;26233;51.894;10.192;2023-08-20T00:35:57;7.80;;;7.20;;
40533;SDS011;26233;51.894;10.192;2023-08-20T00:38:24;8.45;;;7.65;;
40533;SDS011;26233;51.894;10.192;2023-08-20T00:40:51;8.02;;;7.28;;
40533;SDS011;26233;51.894;10.192;2023-08-20T00:43:18;7.80;;;7.15;;
40533;SDS011;26233;51.894;10.192;2023-08-20T00:45:45;9.07;;;8.27;;
40533;SDS011;26233;51.894;10.192;2023-08-20T00:48:13;8.63;;;7.93;;
40533;SDS011;26233;51.894;10.192;2023-08-20T00:50:40;9.45;;;8.68;;
40533;SDS011;26233;51.894;10.192;2023-08-20T00:53:09;9.38;;;8.57;;
40533;SDS011;26233;51.894;10.192;2023-08-20T00:55:38;8.90;;;8.10;;
40533;SDS011;26233;51.894;10.192;2023-08-20T00:58:05;8.98;;;8.07;;
40533;SDS011;26233;51.894;10.192;2023-08-20T01:00:32;9.25;;;8.55;;
40533;SDS011;26233;51.894;10.192;2023-08-20T01:02:59;8.35;;;7.65;;
40533;SDS011;26233;51.894;10.192;2023-08-20T01:05:26;9.20;;;8.35;;
40533;SDS011;26233;51.894;10.192;2023-08-20T01:08:00;8.13;;;7.43;;
40533;SDS011;26233;51.894;10.192;2023-08-20T01:10:46;7.70;;;7.10;;
40533;SDS011;26233;51.894;10.192;2023-08-20T01:13:19;8.48;;;7.88;;
40533;SDS011;26233;51.894;10.192;2023-08-20T01:15:46;8.65;;;7.88;;
40533;SDS011;26233;51.894;10.192;2023-08-20T01:18:13;9.07;;;8.32;;
40533;SDS011;26233;51.894;10.192;2023-08-20T01:20:41;8.35;;;7.70;;
40533;SDS011;26233;51.894;10.192;2023-08-20T01:26:35;7.70;;;7.10;;
40533;SDS011;26233;51.894;10.192;2023-08-20T01:29:24;8.48;;;7.78;;
40533;SDS011;26233;51.894;10.192;2023-08-20T01:31:52;7.95;;;7.32;;
40533;SDS011;26233;51.894;10.192;2023-08-20T01:34:21;8.55;;;7.75;;
40533;SDS011;26233;51.894;10.192;2023-08-20T01:36:48;8.60;;;7.90;;
40533;SDS011;26233;51.894;10.192;2023-08-20T01:39:16;8.05;;;7.40;;
40533;SDS011;26233;51.894;10.192;2023-08-20T01:41:43;8.55;;;7.80;;
40533;SDS011;26233;51.894;10.192;2023-08-20T01:44:11;9.23;;;8.43;;
40533;SDS011;26233;51.894;10.192;2023-08-20T01:46:39;8.45;;;7.72;;
40533;SDS011;26233;51.894;10.192;2023-08-20T01:49:06;8.27;;;7.68;;
40533;SDS011;26233;51.894;10.192;2023-08-20T01:51:33;9.63;;;8.65;;
40533;SDS011;26233;51.894;10.192;2023-08-20T01:54:01;8.95;;;8.23;;
40533;SDS011;26233;51.894;10.192;2023-08-20T01:56:29;10.35;;;9.45;;
40533;SDS011;26233;51.894;10.192;2023-08-20T01:58:56;10.38;;;9.32;;
40533;SDS011;26233;51.894;10.192;2023-08-20T02:01:23;10.00;;;9.10;;
40533;SDS011;26233;51.894;10.192;2023-08-20T02:03:53;11.50;;;10.43;;
40533;SDS011;26233;51.894;10.192;2023-08-20T02:06:20;9.75;;;8.85;;
40533;SDS011;26233;51.894;10.192;2023-08-20T02:08:47;12.13;;;11.07;;
40533;SDS011;26233;51.894;10.192;2023-08-20T02:11:14;12.38;;;11.23;;
40533;SDS011;26233;51.894;10.192;2023-08-20T02:13:41;11.95;;;10.93;;
40533;SDS011;26233;51.894;10.192;2023-08-20T02:16:09;13.02;;;11.82;;
40533;SDS011;26233;51.894;10.192;2023-08-20T02:18:36;13.77;;;12.48;;
40533;SDS011;26233;51.894;10.192;2023-08-20T02:21:04;13.00;;;11.90;;
40533;SDS011;26233;51.894;10.192;2023-08-20T02:23:32;13.10;;;11.90;;
40533;SDS011;26233;51.894;10.192;2023-08-20T02:25:59;12.35;;;11.25;;
40533;SDS011;26233;51.894;10.192;2023-08-20T02:28:27;11.32;;;10.32;;
40533;SDS011;26233;51.894;10.192;2023-08-20T02:30:54;11.02;;;10.05;;
40533;SDS011;26233;51.894;10.192;2023-08-20T02:33:22;11.27;;;10.27;;
40533;SDS011;26233;51.894;10.192;2023-08-20T02:35:49;9.65;;;8.82;;
40533;SDS011;26233;51.894;10.192;2023-08-20T02:38:18;10.55;;;9.68;;
40533;SDS011;26233;51.894;10.192;2023-08-20T02:40:45;8.90;;;8.02;;
40533;SDS011;26233;51.894;10.192;2023-08-20T02:43:12;10.68;;;9.70;;
40533;SDS011;26233;51.894;10.192;2023-08-20T02:45:40;10.48;;;9.60;;
40533;SDS011;26233;51.894;10.192;2023-08-20T02:48:08;9.82;;;8.93;;
40533;SDS011;26233;51.894;10.192;2023-08-20T02:50:35;11.02;;;10.05;;
40533;SDS011;26233;51.894;10.192;2023-08-20T02:53:02;10.05;;;9.25;;
40533;SDS011;26233;51.894;10.192;2023-08-20T02:55:31;10.48;;;9.55;;
40533;SDS011;26233;51.894;10.192;2023-08-20T02:58:00;10.30;;;9.35;;
40533;SDS011;26233;51.894;10.192;2023-08-20T03:00:29;11.13;;;10.13;;
40533;SDS011;26233;51.894;10.192;2023-08-20T03:02:56;11.52;;;10.60;;
40533;SDS011;26233;51.894;10.192;2023-08-20T03:05:23;11.10;;;10.07;;
40533;SDS011;26233;51.894;10.192;2023-08-20T03:07:50;10.40;;;9.50;;
40533;SDS011;26233;51.894;10.192;2023-08-20T03:10:17;10.05;;;9.25;;
40533;SDS011;26233;51.894;10.192;2023-08-20T03:12:45;10.75;;;9.80;;
40533;SDS011;26233;51.894;10.192;2023-08-20T03:15:13;11.07;;;9.13;;
40533;SDS011;26233;51.894;10.192;2023-08-20T03:17:40;11.32;;;10.35;;
40533;SDS011;26233;51.894;10.192;2023-08-20T03:20:07;11.45;;;10.45;;
40533;SDS011;26233;51.894;10.192;2023-08-20T03:22:36;9.75;;;8.98;;
40533;SDS011;26233;51.894;10.192;2023-08-20T03:25:04;10.40;;;9.50;;
40533;SDS011;26233;51.894;10.192;2023-08-20T03:27:33;10.15;;;9.25;;
40533;SDS011;26233;51.894;10.192;2023-08-20T03:30:02;10.60;;;9.70;;
40533;SDS011;26233;51.894;10.192;2023-08-20T03:32:30;10.25;;;9.35;;
40533;SDS011;26233;51.894;10.192;2023-08-20T03:34:58;10.57;;;9.68;;
40533;SDS011;26233;51.894;10.192;2023-08-20T03:37:26;9.77;;;8.93;;
40533;SDS011;26233;51.894;10.192;2023-08-20T03:39:53;11.02;;;10.02;;
40533;SDS011;26233;51.894;10.192;2023-08-20T03:42:20;11.60;;;10.57;;
40533;SDS011;26233;51.894;10.192;2023-08-20T03:44:47;10.10;;;9.20;;
40533;SDS011;26233;51.894;10.192;2023-08-20T03:47:15;10.10;;;9.20;;
40533;SDS011;26233;51.894;10.192;2023-08-20T03:49:45;9.75;;;8.90;;
40533;SDS011;26233;51.894;10.192;2023-08-20T03:52:13;10.77;;;9.77;;
40533;SDS011;26233;51.894;10.192;2023-08-20T03:54:40;10.88;;;9.88;;
40533;SDS011;26233;51.894;10.192;2023-08-20T03:57:07;9.93;;;9.05;;
40533;SDS011;26233;51.894;10.192;2023-08-20T03:59:34;10.57;;;9.55;;
40533;SDS011;26233;51.894;10.192;2023-08-20T04:02:01;10.20;;;9.20;;
40533;SDS011;26233;51.894;10.192;2023-08-20T04:04:30;10.43;;;9.52;;
40533;SDS011;26233;51.894;10.192;2023-08-20T04:06:57;9.43;;;8.63;;
40533;SDS011;26233;51.894;10.192;2023-08-20T04:09:25;10.13;;;9.20;;
40533;SDS011;26233;51.894;10.192;2023-08-20T04:11:52;8.85;;;8.07;;
40533;SDS011;26233;51.894;10.192;2023-08-20T04:14:19;9.00;;;8.27;;
40533;SDS011;26233;51.894;10.192;2023-08-20T04:16:46;9.65;;;8.77;;
40533;SDS011;26233;51.894;10.192;2023-08-20T04:19:13;9.35;;;8.45;;
40533;SDS011;26233;51.894;10.192;2023-08-20T04:21:41;9.60;;;8.70;;
40533;SDS011;26233;51.894;10.192;2023-08-20T04:24:09;9.65;;;8.82;;
40533;SDS011;26233;51.894;10.192;2023-08-20T04:26:36;9.82;;;8.95;;
40533;SDS011;26233;51.894;10.192;2023-08-20T04:29:03;10.20;;;9.20;;
40533;SDS011;26233;51.894;10.192;2023-08-20T04:31:30;9.65;;;8.82;;
40533;SDS011;26233;51.894;10.192;2023-08-20T04:33:57;10.27;;;9.38;;
40533;SDS011;26233;51.894;10.192;2023-08-20T04:36:25;10.10;;;9.30;;
40533;SDS011;26233;51.894;10.192;2023-08-20T04:38:54;9.48;;;8.57;;
40533;SDS011;26233;51.894;10.192;2023-08-20T04:41:21;9.20;;;8.38;;
40533;SDS011;26233;51.894;10.192;2023-08-20T04:43:48;10.27;;;9.27;;
40533;SDS011;26233;51.894;10.192;2023-08-20T04:46:15;10.25;;;9.25;;
40533;SDS011;26233;51.894;10.192;2023-08-20T04:48:43;9.63;;;8.82;;
40533;SDS011;26233;51.894;10.192;2023-08-20T04:51:10;10.20;;;9.30;;
40533;SDS011;26233;51.894;10.192;2023-08-20T04:53:37;9.43;;;8.63;;
40533;SDS011;26233;51.894;10.192;2023-08-20T04:56:06;9.52;;;8.73;;
40533;SDS011;26233;51.894;10.192;2023-08-20T04:58:33;11.18;;;10.18;;
40533;SDS011;26233;51.894;10.192;2023-08-20T05:01:00;10.00;;;9.00;;
40533;SDS011;26233;51.894;10.192;2023-08-20T05:03:27;10.35;;;9.35;;
40533;SDS011;26233;51.894;10.192;2023-08-20T05:05:54;10.30;;;9.40;;
40533;SDS011;26233;51.894;10.192;2023-08-20T05:08:21;11.07;;;10.07;;
40533;SDS011;26233;51.894;10.192;2023-08-20T05:10:49;10.52;;;9.57;;
40533;SDS011;26233;51.894;10.192;2023-08-20T05:13:17;10.35;;;9.45;;
40533;SDS011;26233;51.894;10.192;2023-08-20T05:15:46;10.85;;;9.85;;
40533;SDS011;26233;51.894;10.192;2023-08-20T05:18:12;10.23;;;9.32;;
40533;SDS011;26233;51.894;10.192;2023-08-20T05:20:39;10.50;;;9.52;;
40533;SDS011;26233;51.894;10.192;2023-08-20T05:23:06;10.05;;;9.25;;
40533;SDS011;26233;51.894;10.192;2023-08-20T05:25:34;10.05;;;9.15;;
40533;SDS011;26233;51.894;10.192;2023-08-20T05:28:01;9.73;;;8.93;;
40533;SDS011;26233;51.894;10.192;2023-08-20T05:30:30;10.25;;;9.35;;
40533;SDS011;26233;51.894;10.192;2023-08-20T05:32:57;10.05;;;9.10;;
40533;SDS011;26233;51.894;10.192;2023-08-20T05:35:24;9.70;;;8.90;;
40533;SDS011;26233;51.894;10.192;2023-08-20T05:37:51;9.13;;;8.32;;
40533;SDS011;26233;51.894;10.192;2023-08-20T05:40:18;9.52;;;8.80;;
40533;SDS011;26233;51.894;10.192;2023-08-20T05:42:46;9.77;;;8.88;;
40533;SDS011;26233;51.894;10.192;2023-08-20T05:45:13;9.18;;;8.32;;
40533;SDS011;26233;51.894;10.192;2023-08-20T05:47:41;9.00;;;8.18;;
40533;SDS011;26233;51.894;10.192;2023-08-20T05:50:09;9.40;;;8.50;;
40533;SDS011;26233;51.894;10.192;2023-08-20T05:52:36;8.70;;;7.90;;
40533;SDS011;26233;51.894;10.192;2023-08-20T05:55:03;8.48;;;7.78;;
40533;SDS011;26233;51.894;10.192;2023-08-20T05:57:31;8.45;;;7.75;;
40533;SDS011;26233;51.894;10.192;2023-08-20T06:00:01;8.60;;;7.80;;
40533;SDS011;26233;51.894;10.192;2023-08-20T06:02:30;8.40;;;7.60;;
40533;SDS011;26233;51.894;10.192;2023-08-20T06:04:58;8.10;;;7.40;;
40533;SDS011;26233;51.894;10.192;2023-08-20T06:07:26;8.50;;;7.68;;
40533;SDS011;26233;51.894;10.192;2023-08-20T06:09:53;7.78;;;7.07;;
40533;SDS011;26233;51.894;10.192;2023-08-20T06:12:20;9.57;;;8.77;;
40533;SDS011;26233;51.894;10.192;2023-08-20T06:14:47;9.88;;;8.98;;
40533;SDS011;26233;51.894;10.192;2023-08-20T06:17:15;10.52;;;9.70;;
40533;SDS011;26233;51.894;10.192;2023-08-20T06:19:42;10.50;;;9.60;;
40533;SDS011;26233;51.894;10.192;2023-08-20T06:22:11;10.05;;;9.05;;
40533;SDS011;26233;51.894;10.192;2023-08-20T06:24:38;9.40;;;8.60;;
40533;SDS011;26233;51.894;10.192;2023-08-20T06:27:05;10.95;;;9.95;;
40533;SDS011;26233;51.894;10.192;2023-08-20T06:29:33;10.95;;;9.95;;
40533;SDS011;26233;51.894;10.192;2023-08-20T06:32:00;17.63;;;16.13;;
40533;SDS011;26233;51.894;10.192;2023-08-20T06:34:27;13.85;;;12.65;;
40533;SDS011;26233;51.894;10.192;2023-08-20T06:36:54;12.80;;;11.80;;
40533;SDS011;26233;51.894;10.192;2023-08-20T06:39:22;12.32;;;11.32;;
40533;SDS011;26233;51.894;10.192;2023-08-20T06:41:49;10.88;;;10.07;;
40533;SDS011;26233;51.894;10.192;2023-08-20T06:44:17;11.60;;;10.70;;
40533;SDS011;26233;51.894;10.192;2023-08-20T06:46:44;13.27;;;12.15;;
40533;SDS011;26233;51.894;10.192;2023-08-20T06:49:11;14.18;;;12.82;;
40533;SDS011;26233;51.894;10.192;2023-08-20T06:51:38;14.32;;;13.13;;
40533;SDS011;26233;51.894;10.192;2023-08-20T06:54:05;12.07;;;10.90;;
40533;SDS011;26233;51.894;10.192;2023-08-20T06:56:34;9.15;;;8.40;;
40533;SDS011;26233;51.894;10.192;2023-08-20T06:59:01;8.25;;;7.55;;
40533;SDS011;26233;51.894;10.192;2023-08-20T07:01:28;7.30;;;6.70;;
40533;SDS011;26233;51.894;10.192;2023-08-20T07:03:56;6.88;;;6.38;;
40533;SDS011;26233;51.894;10.192;2023-08-20T07:06:23;7.72;;;7.13;;
40533;SDS011;26233;51.894;10.192;2023-08-20T07:08:50;7.30;;;6.78;;
40533;SDS011;26233;51.894;10.192;2023-08-20T07:11:17;6.78;;;6.20;;
40533;SDS011;26233;51.894;10.192;2023-08-20T07:13:46;6.35;;;5.95;;
40533;SDS011;26233;51.894;10.192;2023-08-20T07:16:13;5.75;;;5.35;;
40533;SDS011;26233;51.894;10.192;2023-08-20T07:18:40;6.43;;;6.00;;
40533;SDS011;26233;51.894;10.192;2023-08-20T07:21:07;6.80;;;6.30;;
40533;SDS011;26233;51.894;10.192;2023-08-20T07:23:34;6.55;;;6.05;;
40533;SDS011;26233;51.894;10.192;2023-08-20T07:26:05;6.07;;;5.63;;
40533;SDS011;26233;51.894;10.192;2023-08-20T07:28:34;7.38;;;6.78;;
40533;SDS011;26233;51.894;10.192;2023-08-20T07:31:24;6.90;;;6.40;;
40533;SDS011;26233;51.894;10.192;2023-08-20T07:33:52;6.82;;;6.20;;
40533;SDS011;26233;51.894;10.192;2023-08-20T07:36:21;6.70;;;6.30;;
40533;SDS011;26233;51.894;10.192;2023-08-20T07:38:49;6.70;;;6.20;;
40533;SDS011;26233;51.894;10.192;2023-08-20T07:41:17;6.43;;;5.95;;
40533;SDS011;26233;51.894;10.192;2023-08-20T07:43:45;7.45;;;6.95;;
40533;SDS011;26233;51.894;10.192;2023-08-20T07:46:13;7.25;;;6.65;;
40533;SDS011;26233;51.894;10.192;2023-08-20T07:48:42;7.75;;;7.25;;
40533;SDS011;26233;51.894;10.192;2023-08-20T07:51:09;7.25;;;6.75;;
40533;SDS011;26233;51.894;10.192;2023-08-20T07:53:38;7.80;;;7.30;;
40533;SDS011;26233;51.894;10.192;2023-08-20T07:56:05;7.38;;;6.88;;
40533;SDS011;26233;51.894;10.192;2023-08-20T07:58:32;6.95;;;6.55;;
40533;SDS011;26233;51.894;10.192;2023-08-20T08:00:59;6.95;;;6.55;;
40533;SDS011;26233;51.894;10.192;2023-08-20T08:03:27;6.82;;;6.22;;
40533;SDS011;26233;51.894;10.192;2023-08-20T08:05:56;7.07;;;6.57;;
40533;SDS011;26233;51.894;10.192;2023-08-20T08:08:24;6.43;;;5.90;;
40533;SDS011;26233;51.894;10.192;2023-08-20T08:10:51;7.00;;;6.50;;
40533;SDS011;26233;51.894;10.192;2023-08-20T08:13:19;7.05;;;6.55;;
40533;SDS011;26233;51.894;10.192;2023-08-20T08:15:47;6.63;;;6.22;;
40533;SDS011;26233;51.894;10.192;2023-08-20T08:18:15;7.22;;;6.72;;
40533;SDS011;26233;51.894;10.192;2023-08-20T08:20:43;6.68;;;6.28;;
40533;SDS011;26233;51.894;10.192;2023-08-20T08:23:11;6.57;;;6.10;;
40533;SDS011;26233;51.894;10.192;2023-08-20T08:25:38;6.38;;;5.97;;
40533;SDS011;26233;51.894;10.192;2023-08-20T08:28:06;6.35;;;5.88;;
40533;SDS011;26233;51.894;10.192;2023-08-20T08:30:34;6.13;;;5.70;;
40533;SDS011;26233;51.894;10.192;2023-08-20T08:33:01;6.03;;;5.63;;
40533;SDS011;26233;51.894;10.192;2023-08-20T08:35:28;6.05;;;5.70;;
40533;SDS011;26233;51.894;10.192;2023-08-20T08:37:56;6.40;;;5.80;;
40533;SDS011;26233;51.894;10.192;2023-08-20T08:40:25;6.30;;;5.90;;
40533;SDS011;26233;51.894;10.192;2023-08-20T08:42:55;6.60;;;6.07;;
40533;SDS011;26233;51.894;10.192;2023-08-20T08:45:23;5.57;;;5.18;;
40533;SDS011;26233;51.894;10.192;2023-08-20T08:47:52;6.53;;;5.95;;
40533;SDS011;26233;51.894;10.192;2023-08-20T08:50:21;5.85;;;5.45;;
40533;SDS011;26233;51.894;10.192;2023-08-20T08:52:48;6.93;;;5.28;;
40533;SDS011;26233;51.894;10.192;2023-08-20T08:55:18;6.30;;;5.90;;
40533;SDS011;26233;51.894;10.192;2023-08-20T08:57:47;5.70;;;5.28;;
40533;SDS011;26233;51.894;10.192;2023-08-20T09:00:14;5.50;;;5.10;;
40533;SDS011;26233;51.894;10.192;2023-08-20T09:02:41;5.88;;;5.47;;
40533;SDS011;26233;51.894;10.192;2023-08-20T09:05:09;5.15;;;4.85;;
40533;SDS011;26233;51.894;10.192;2023-08-20T09:07:37;5.82;;;5.43;;
40533;SDS011;26233;51.894;10.192;2023-08-20T09:10:10;6.03;;;5.63;;
40533;SDS011;26233;51.894;10.192;2023-08-20T09:12:37;5.70;;;5.30;;
40533;SDS011;26233;51.894;10.192;2023-08-20T09:15:09;5.60;;;5.20;;
40533;SDS011;26233;51.894;10.192;2023-08-20T09:17:37;5.70;;;5.28;;
40533;SDS011;26233;51.894;10.192;2023-08-20T09:20:04;5.65;;;5.25;;
40533;SDS011;26233;51.894;10.192;2023-08-20T09:22:33;5.50;;;5.10;;
40533;SDS011;26233;51.894;10.192;2023-08-20T09:25:02;5.40;;;5.00;;
40533;SDS011;26233;51.894;10.192;2023-08-20T09:27:30;4.90;;;4.60;;
40533;SDS011;26233;51.894;10.192;2023-08-20T09:30:08;4.88;;;4.53;;
40533;SDS011;26233;51.894;10.192;2023-08-20T09:32:36;5.00;;;4.70;;
40533;SDS011;26233;51.894;10.192;2023-08-20T09:35:04;4.60;;;4.30;;
40533;SDS011;26233;51.894;10.192;2023-08-20T09:37:32;4.82;;;4.50;;
40533;SDS011;26233;51.894;10.192;2023-08-20T09:40:00;4.75;;;4.45;;
40533;SDS011;26233;51.894;10.192;2023-08-20T09:42:27;4.97;;;4.60;;
40533;SDS011;26233;51.894;10.192;2023-08-20T09:44:57;5.00;;;4.70;;
40533;SDS011;26233;51.894;10.192;2023-08-20T09:47:31;4.72;;;4.38;;
40533;SDS011;26233;51.894;10.192;2023-08-20T09:50:01;4.32;;;4.07;;
40533;SDS011;26233;51.894;10.192;2023-08-20T09:52:34;4.65;;;4.35;;
40533;SDS011;26233;51.894;10.192;2023-08-20T09:55:07;4.80;;;4.50;;
40533;SDS011;26233;51.894;10.192;2023-08-20T09:57:36;4.38;;;4.00;;
40533;SDS011;26233;51.894;10.192;2023-08-20T10:00:05;4.32;;;4.03;;
40533;SDS011;26233;51.894;10.192;2023-08-20T10:02:37;4.65;;;4.35;;
40533;SDS011;26233;51.894;10.192;2023-08-20T10:05:06;4.25;;;3.97;;
40533;SDS011;26233;51.894;10.192;2023-08-20T10:07:34;4.50;;;4.20;;
40533;SDS011;26233;51.894;10.192;2023-08-20T10:10:02;4.22;;;3.92;;
40533;SDS011;26233;51.894;10.192;2023-08-20T10:12:32;4.20;;;4.00;;
40533;SDS011;26233;51.894;10.192;2023-08-20T10:15:00;4.50;;;4.20;;
40533;SDS011;26233;51.894;10.192;2023-08-20T10:17:28;4.03;;;3.72;;
40533;SDS011;26233;51.894;10.192;2023-08-20T10:19:59;4.53;;;4.22;;
40533;SDS011;26233;51.894;10.192;2023-08-20T10:22:32;4.57;;;4.28;;
40533;SDS011;26233;51.894;10.192;2023-08-20T10:24:59;4.70;;;4.30;;
40533;SDS011;26233;51.894;10.192;2023-08-20T10:27:28;4.28;;;3.97;;
40533;SDS011;26233;51.894;10.192;2023-08-20T10:29:59;4.90;;;4.50;;
40533;SDS011;26233;51.894;10.192;2023-08-20T10:35:22;4.60;;;4.30;;
40533;SDS011;26233;51.894;10.192;2023-08-20T10:38:05;4.20;;;3.90;;
40533;SDS011;26233;51.894;10.192;2023-08-20T10:40:46;4.47;;;4.07;;
40533;SDS011;26233;51.894;10.192;2023-08-20T10:43:28;4.75;;;4.45;;
40533;SDS011;26233;51.894;10.192;2023-08-20T10:48:46;4.85;;;4.55;;
40533;SDS011;26233;51.894;10.192;2023-08-20T10:51:17;4.97;;;4.68;;
40533;SDS011;26233;51.894;10.192;2023-08-20T10:54:02;4.85;;;4.55;;
40533;SDS011;26233;51.894;10.192;2023-08-20T10:56:38;5.05;;;4.65;;
40533;SDS011;26233;51.894;10.192;2023-08-20T10:59:07;4.70;;;4.30;;
40533;SDS011;26233;51.894;10.192;2023-08-20T11:01:35;4.97;;;4.68;;
40533;SDS011;26233;51.894;10.192;2023-08-20T11:04:04;4.45;;;4.15;;
40533;SDS011;26233;51.894;10.192;2023-08-20T11:06:34;4.57;;;4.28;;
40533;SDS011;26233;51.894;10.192;2023-08-20T11:09:01;4.75;;;4.45;;
40533;SDS011;26233;51.894;10.192;2023-08-20T11:11:31;4.57;;;4.28;;
40533;SDS011;26233;51.894;10.192;2023-08-20T11:14:03;4.60;;;4.30;;
40533;SDS011;26233;51.894;10.192;2023-08-20T11:16:32;4.75;;;4.43;;
40533;SDS011;26233;51.894;10.192;2023-08-20T11:19:00;5.07;;;4.70;;
40533;SDS011;26233;51.894;10.192;2023-08-20T11:21:30;4.88;;;4.53;;
40533;SDS011;26233;51.894;10.192;2023-08-20T11:24:00;4.93;;;4.63;;
40533;SDS011;26233;51.894;10.192;2023-08-20T11:26:28;4.75;;;4.45;;
40533;SDS011;26233;51.894;10.192;2023-08-20T11:28:56;5.32;;;4.88;;
40533;SDS011;26233;51.894;10.192;2023-08-20T11:31:23;5.32;;;4.93;;
40533;SDS011;26233;51.894;10.192;2023-08-20T11:33:50;5.50;;;5.10;;
40533;SDS011;26233;51.894;10.192;2023-08-20T11:36:17;4.80;;;4.50;;
40533;SDS011;26233;51.894;10.192;2023-08-20T11:38:48;5.60;;;5.20;;
40533;SDS011;26233;51.894;10.192;2023-08-20T11:41:18;5.20;;;4.82;;
40533;SDS011;26233;51.894;10.192;2023-08-20T11:43:46;5.80;;;5.40;;
40533;SDS011;26233;51.894;10.192;2023-08-20T11:46:13;5.47;;;4.97;;
40533;SDS011;26233;51.894;10.192;2023-08-20T11:51:29;5.70;;;5.30;;
40533;SDS011;26233;51.894;10.192;2023-08-20T11:54:01;5.85;;;5.45;;
40533;SDS011;26233;51.894;10.192;2023-08-20T11:56:32;5.80;;;5.40;;
40533;SDS011;26233;51.894;10.192;2023-08-20T11:59:00;5.35;;;5.03;;
40533;SDS011;26233;51.894;10.192;2023-08-20T12:01:29;6.15;;;5.68;;
40533;SDS011;26233;51.894;10.192;2023-08-20T12:03:59;4.93;;;4.60;;
40533;SDS011;26233;51.894;10.192;2023-08-20T12:06:28;5.10;;;4.70;;
40533;SDS011;26233;51.894;10.192;2023-08-20T12:08:56;6.50;;;5.85;;
40533;SDS011;26233;51.894;10.192;2023-08-20T12:11:24;5.40;;;5.00;;
40533;SDS011;26233;51.894;10.192;2023-08-20T12:13:53;5.80;;;5.40;;
40533;SDS011;26233;51.894;10.192;2023-08-20T12:16:21;5.57;;;5.10;;
40533;SDS011;26233;51.894;10.192;2023-08-20T12:18:50;5.95;;;5.45;;
40533;SDS011;26233;51.894;10.192;2023-08-20T12:21:18;5.40;;;5.00;;
40533;SDS011;26233;51.894;10.192;2023-08-20T12:23:45;5.82;;;5.35;;
40533;SDS011;26233;51.894;10.192;2023-08-20T12:26:12;5.00;;;4.70;;
40533;SDS011;26233;51.894;10.192;2023-08-20T12:28:39;5.40;;;5.00;;
40533;SDS011;26233;51.894;10.192;2023-08-20T12:31:08;5.60;;;5.20;;
40533;SDS011;26233;51.894;10.192;2023-08-20T12:33:35;5.28;;;4.78;;
40533;SDS011;26233;51.894;10.192;2023-08-20T12:36:02;4.80;;;4.50;;
40533;SDS011;26233;51.894;10.192;2023-08-20T12:38:30;5.20;;;4.80;;
40533;SDS011;26233;51.894;10.192;2023-08-20T12:40:59;4.90;;;4.50;;
40533;SDS011;26233;51.894;10.192;2023-08-20T12:43:26;5.60;;;5.20;;
40533;SDS011;26233;51.894;10.192;2023-08-20T12:45:53;5.53;;;5.13;;
40533;SDS011;26233;51.894;10.192;2023-08-20T12:48:22;5.72;;;5.32;;
40533;SDS011;26233;51.894;10.192;2023-08-20T12:50:49;5.60;;;5.20;;
40533;SDS011;26233;51.894;10.192;2023-08-20T12:53:16;5.72;;;5.28;;
40533;SDS011;26233;51.894;10.192;2023-08-20T12:55:44;5.55;;;5.25;;
40533;SDS011;26233;51.894;10.192;2023-08-20T12:58:11;5.53;;;5.20;;
40533;SDS011;26233;51.894;10.192;2023-08-20T13:00:38;5.70;;;5.30;;
40533;SDS011;26233;51.894;10.192;2023-08-20T13:03:05;5.50;;;5.20;;
40533;SDS011;26233;51.894;10.192;2023-08-20T13:05:36;5.75;;;5.35;;
40533;SDS011;26233;51.894;10.192;2023-08-20T13:08:04;5.72;;;5.32;;
40533;SDS011;26233;51.894;10.192;2023-08-20T13:10:33;5.80;;;5.35;;
40533;SDS011;26233;51.894;10.192;2023-08-20T13:13:01;6.00;;;5.60;;
40533;SDS011;26233;51.894;10.192;2023-08-20T13:15:30;6.47;;;5.97;;
40533;SDS011;26233;51.894;10.192;2023-08-20T13:17:58;6.50;;;6.00;;
40533;SDS011;26233;51.894;10.192;2023-08-20T13:20:25;5.55;;;5.15;;
40533;SDS011;26233;51.894;10.192;2023-08-20T13:22:54;5.75;;;5.20;;
40533;SDS011;26233;51.894;10.192;2023-08-20T13:25:21;5.70;;;5.20;;
40533;SDS011;26233;51.894;10.192;2023-08-20T13:27:49;5.80;;;5.30;;
40533;SDS011;26233;51.894;10.192;2023-08-20T13:30:16;5.47;;;5.07;;
40533;SDS011;26233;51.894;10.192;2023-08-20T13:32:44;5.20;;;4.80;;
40533;SDS011;26233;51.894;10.192;2023-08-20T13:35:11;5.65;;;4.95;;
40533;SDS011;26233;51.894;10.192;2023-08-20T13:37:39;5.40;;;4.90;;
40533;SDS011;26233;51.894;10.192;2023-08-20T13:40:09;4.82;;;4.53;;
40533;SDS011;26233;51.894;10.192;2023-08-20T13:42:37;4.82;;;4.50;;
40533;SDS011;26233;51.894;10.192;2023-08-20T13:45:05;4.78;;;4.30;;
40533;SDS011;26233;51.894;10.192;2023-08-20T13:47:33;5.00;;;4.65;;
40533;SDS011;26233;51.894;10.192;2023-08-20T13:50:00;4.75;;;4.45;;
40533;SDS011;26233;51.894;10.192;2023-08-20T13:52:29;4.90;;;4.60;;
40533;SDS011;26233;51.894;10.192;2023-08-20T13:54:56;5.03;;;4.63;;
40533;SDS011;26233;51.894;10.192;2023-08-20T13:57:25;5.20;;;4.82;;
40533;SDS011;26233;51.894;10.192;2023-08-20T13:59:52;4.60;;;4.25;;
40533;SDS011;26233;51.894;10.192;2023-08-20T14:02:19;5.60;;;4.90;;
40533;SDS011;26233;51.894;10.192;2023-08-20T14:04:46;4.43;;;4.13;;
40533;SDS011;26233;51.894;10.192;2023-08-20T14:07:13;4.72;;;4.43;;
40533;SDS011;26233;51.894;10.192;2023-08-20T14:09:41;4.57;;;4.28;;
40533;SDS011;26233;51.894;10.192;2023-08-20T14:12:08;4.60;;;4.30;;
40533;SDS011;26233;51.894;10.192;2023-08-20T14:14:36;4.38;;;4.07;;
40533;SDS011;26233;51.894;10.192;2023-08-20T14:17:03;5.20;;;4.70;;
40533;SDS011;26233;51.894;10.192;2023-08-20T14:19:31;4.50;;;4.20;;
40533;SDS011;26233;51.894;10.192;2023-08-20T14:21:58;4.57;;;4.28;;
40533;SDS011;26233;51.894;10.192;2023-08-20T14:24:25;4.55;;;4.25;;
40533;SDS011;26233;51.894;10.192;2023-08-20T14:26:52;4.78;;;4.22;;
40533;SDS011;26233;51.894;10.192;2023-08-20T14:29:19;4.60;;;4.30;;
40533;SDS011;26233;51.894;10.192;2023-08-20T14:31:48;4.50;;;4.10;;
40533;SDS011;26233;51.894;10.192;2023-08-20T14:34:15;4.43;;;4.13;;
40533;SDS011;26233;51.894;10.192;2023-08-20T14:36:42;4.40;;;4.10;;
40533;SDS011;26233;51.894;10.192;2023-08-20T14:39:09;4.40;;;4.03;;
40533;SDS011;26233;51.894;10.192;2023-08-20T14:41:36;4.53;;;4.22;;
40533;SDS011;26233;51.894;10.192;2023-08-20T14:44:04;4.50;;;4.10;;
40533;SDS011;26233;51.894;10.192;2023-08-20T14:46:31;4.57;;;4.22;;
40533;SDS011;26233;51.894;10.192;2023-08-20T14:49:00;4.47;;;4.18;;